Time,TemperatureF,DewpointF,PressureIn,WindDirection,WindDirectionDegrees,WindSpeedMPH,WindSpeedGustMPH,Humidity,HourlyPrecipIn,Conditions,Clouds,dailyrainin,SoftwareType,DateUTC
2013-06-10 00:01:00,70.2,66.8,0.00,North,0,0.0,0.0,89,0.00,,,0.00,WUHU21623XXSP,2013-06-10 04:01:00,
2013-06-10 00:06:00,70.2,66.8,0.00,North,0,0.0,0.0,89,0.00,,,0.00,WUHU21623XXSP,2013-06-10 04:06:00,
2013-06-10 00:11:00,70.2,66.8,0.00,North,0,0.0,0.0,89,0.00,,,0.00,WUHU21623XXSP,2013-06-10 04:11:00,
2013-06-10 00:16:00,70.0,66.8,0.00,North,0,0.0,0.0,89,0.00,,,0.00,WUHU21623XXSP,2013-06-10 04:16:00,
2013-06-10 00:21:00,70.0,66.6,0.00,North,0,0.0,0.0,89,0.00,,,0.00,WUHU21623XXSP,2013-06-10 04:21:00,
2013-06-10 00:26:00,70.0,66.6,0.00,North,0,0.0,0.0,89,0.00,,,0.00,WUHU21623XXSP,2013-06-10 04:26:00,
2013-06-10 00:31:00,70.0,66.6,0.00,North,0,0.0,0.0,89,0.00,,,0.00,WUHU21623XXSP,2013-06-10 04:31:00,
2013-06-10 00:36:00,70.0,66.6,0.00,North,0,0.0,0.0,89,0.00,,,0.00,WUHU21623XXSP,2013-06-10 04:36:00,
2013-06-10 00:42:00,70.0,66.6,0.00,North,0,0.0,0.0,89,0.00,,,0.00,WUHU21623XXSP,2013-06-10 04:42:00,
2013-06-10 00:47:00,70.0,66.6,0.00,North,0,0.0,0.0,89,0.00,,,0.00,WUHU21623XXSP,2013-06-10 04:47:00,
2013-06-10 00:52:00,70.0,66.6,0.00,North,0,0.0,0.0,89,0.00,,,0.00,WUHU21623XXSP,2013-06-10 04:52:00,
2013-06-10 00:57:00,70.0,66.6,0.00,North,0,0.0,0.0,89,0.00,,,0.00,WUHU21623XXSP,2013-06-10 04:57:00,
2013-06-10 01:02:00,70.0,66.9,0.00,North,0,0.0,0.0,90,0.00,,,0.00,WUHU21623XXSP,2013-06-10 05:02:00,
2013-06-10 01:07:00,70.0,66.9,0.00,North,0,0.0,0.0,89,0.00,,,0.00,WUHU21623XXSP,2013-06-10 05:07:00,
2013-06-10 01:12:00,69.8,66.9,0.00,North,0,0.0,0.0,90,0.00,,,0.00,WUHU21623XXSP,2013-06-10 05:12:00,
2013-06-10 01:17:00,69.8,66.7,0.00,North,0,0.0,0.0,90,0.02,,,0.00,WUHU21623XXSP,2013-06-10 05:17:00,
2013-06-10 01:22:00,69.6,66.7,0.00,North,0,0.0,0.0,90,0.02,,,0.02,WUHU21623XXSP,2013-06-10 05:22:00,
2013-06-10 01:27:00,69.4,66.2,0.00,North,0,0.0,0.0,89,0.02,,,0.02,WUHU21623XXSP,2013-06-10 05:27:00,
2013-06-10 01:32:00,69.4,66.0,0.00,North,0,0.0,0.0,89,0.31,,,0.06,WUHU21623XXSP,2013-06-10 05:32:00,
2013-06-10 01:37:00,69.1,65.7,0.00,North,0,0.0,0.0,89,0.33,,,0.32,WUHU21623XXSP,2013-06-10 05:37:00,
2013-06-10 01:42:00,69.1,65.7,0.00,North,0,0.0,0.0,89,0.33,,,0.32,WUHU21623XXSP,2013-06-10 05:42:00,
2013-06-10 01:47:00,68.9,65.5,0.00,North,0,0.0,0.0,89,0.33,,,0.32,WUHU21623XXSP,2013-06-10 05:47:00,
2013-06-10 01:52:00,68.9,65.5,0.00,North,0,0.0,0.0,89,0.39,,,0.34,WUHU21623XXSP,2013-06-10 05:52:00,
2013-06-10 01:57:00,68.7,65.3,0.00,North,0,0.0,0.0,89,0.41,,,0.38,WUHU21623XXSP,2013-06-10 05:57:00,
2013-06-10 02:02:00,68.7,65.3,0.00,North,0,0.0,0.0,89,0.41,,,0.40,WUHU21623XXSP,2013-06-10 06:02:00,
2013-06-10 02:07:00,68.5,65.1,0.00,North,0,0.0,0.0,89,0.43,,,0.40,WUHU21623XXSP,2013-06-10 06:07:00,
2013-06-10 02:12:00,68.5,65.1,0.00,North,0,0.0,0.0,89,0.49,,,0.51,WUHU21623XXSP,2013-06-10 06:12:00,
2013-06-10 02:17:00,68.5,65.1,0.00,North,0,0.0,0.0,89,0.49,,,0.51,WUHU21623XXSP,2013-06-10 06:17:00,
2013-06-10 02:22:00,68.4,65.0,0.00,North,0,0.0,0.0,89,0.51,,,0.53,WUHU21623XXSP,2013-06-10 06:22:00,
2013-06-10 02:27:00,68.4,65.0,0.00,North,0,0.0,0.0,89,0.47,,,0.53,WUHU21623XXSP,2013-06-10 06:27:00,
2013-06-10 02:32:00,68.4,65.0,0.00,North,0,0.0,0.0,89,0.22,,,0.53,WUHU21623XXSP,2013-06-10 06:32:00,
2013-06-10 02:37:00,68.4,65.0,0.00,North,0,0.0,0.0,89,0.20,,,0.53,WUHU21623XXSP,2013-06-10 06:37:00,
2013-06-10 02:42:00,68.2,65.0,0.00,North,0,0.0,0.0,89,0.20,,,0.53,WUHU21623XXSP,2013-06-10 06:42:00,
2013-06-10 02:47:00,68.2,64.8,0.00,North,0,0.0,0.0,89,0.20,,,0.53,WUHU21623XXSP,2013-06-10 06:47:00,
2013-06-10 02:52:00,68.2,64.8,0.00,North,0,0.0,0.0,89,0.14,,,0.53,WUHU21623XXSP,2013-06-10 06:52:00,
2013-06-10 02:57:00,68.2,64.8,0.00,North,0,0.0,0.0,89,0.12,,,0.53,WUHU21623XXSP,2013-06-10 06:57:00,
2013-06-10 03:02:00,68.2,64.8,0.00,North,0,0.0,0.0,89,0.10,,,0.53,WUHU21623XXSP,2013-06-10 07:02:00,
2013-06-10 03:07:00,68.2,64.8,0.00,North,0,0.0,0.0,89,0.10,,,0.53,WUHU21623XXSP,2013-06-10 07:07:00,
2013-06-10 03:12:00,68.2,64.8,0.00,North,0,0.0,0.0,89,0.02,,,0.53,WUHU21623XXSP,2013-06-10 07:12:00,
2013-06-10 03:17:00,68.2,64.8,0.00,North,0,0.0,0.0,89,0.00,,,0.53,WUHU21623XXSP,2013-06-10 07:17:00,
2013-06-10 03:22:00,68.2,64.8,0.00,North,0,0.0,0.0,89,0.00,,,0.53,WUHU21623XXSP,2013-06-10 07:22:00,
2013-06-10 03:27:00,68.0,64.8,0.00,North,0,0.0,0.0,89,0.00,,,0.53,WUHU21623XXSP,2013-06-10 07:27:00,
2013-06-10 03:32:00,68.0,65.1,0.00,North,0,0.0,0.0,89,0.00,,,0.53,WUHU21623XXSP,2013-06-10 07:32:00,
2013-06-10 03:37:00,68.0,64.6,0.00,North,0,0.0,0.0,89,0.02,,,0.53,WUHU21623XXSP,2013-06-10 07:37:00,
2013-06-10 03:42:00,68.0,64.9,0.00,North,0,0.0,0.0,90,0.02,,,0.55,WUHU21623XXSP,2013-06-10 07:42:00,
2013-06-10 03:47:00,68.2,65.1,0.00,North,0,0.0,0.0,90,0.02,,,0.55,WUHU21623XXSP,2013-06-10 07:47:00,
2013-06-10 03:52:00,68.0,64.9,0.00,North,0,0.0,0.0,89,0.02,,,0.55,WUHU21623XXSP,2013-06-10 07:52:00,
2013-06-10 03:57:00,67.8,64.4,0.00,North,0,0.0,0.0,89,0.02,,,0.55,WUHU21623XXSP,2013-06-10 07:57:00,
2013-06-10 04:02:00,68.0,64.9,0.00,North,0,0.0,0.0,90,0.02,,,0.55,WUHU21623XXSP,2013-06-10 08:02:00,
2013-06-10 04:07:00,68.0,64.9,0.00,North,0,0.0,0.0,90,0.02,,,0.55,WUHU21623XXSP,2013-06-10 08:07:00,
2013-06-10 04:12:00,67.8,64.9,0.00,North,0,0.0,0.0,90,0.02,,,0.55,WUHU21623XXSP,2013-06-10 08:12:00,
2013-06-10 04:17:00,67.8,64.8,0.00,North,0,0.0,0.0,90,0.02,,,0.55,WUHU21623XXSP,2013-06-10 08:17:00,
2013-06-10 04:22:00,67.8,64.8,0.00,North,0,0.0,0.0,90,0.02,,,0.55,WUHU21623XXSP,2013-06-10 08:22:00,
2013-06-10 04:27:00,67.8,64.8,0.00,North,0,0.0,0.0,90,0.02,,,0.55,WUHU21623XXSP,2013-06-10 08:27:00,
2013-06-10 04:32:00,67.8,64.8,0.00,North,0,0.0,0.0,90,0.02,,,0.55,WUHU21623XXSP,2013-06-10 08:32:00,
2013-06-10 04:37:00,67.8,64.8,0.00,North,0,0.0,0.0,90,0.00,,,0.55,WUHU21623XXSP,2013-06-10 08:37:00,
2013-06-10 04:42:00,67.8,64.8,0.00,North,0,0.0,0.0,90,0.00,,,0.55,WUHU21623XXSP,2013-06-10 08:42:00,
2013-06-10 04:47:00,67.8,64.8,0.00,North,0,0.0,0.0,90,0.00,,,0.55,WUHU21623XXSP,2013-06-10 08:47:00,
2013-06-10 04:52:00,67.8,64.8,0.00,North,0,0.0,0.0,90,0.00,,,0.55,WUHU21623XXSP,2013-06-10 08:52:00,
2013-06-10 04:57:00,67.8,64.8,0.00,North,0,0.0,0.0,90,0.00,,,0.55,WUHU21623XXSP,2013-06-10 08:57:00,
2013-06-10 05:02:00,67.8,64.8,0.00,North,0,0.0,0.0,90,0.00,,,0.55,WUHU21623XXSP,2013-06-10 09:02:00,
2013-06-10 05:07:00,67.8,64.8,0.00,North,0,0.0,0.0,90,0.00,,,0.55,WUHU21623XXSP,2013-06-10 09:07:00,
2013-06-10 05:12:00,67.8,64.8,0.00,North,0,0.0,0.0,90,0.00,,,0.55,WUHU21623XXSP,2013-06-10 09:12:00,
2013-06-10 05:17:00,67.8,64.8,0.00,North,0,0.0,0.0,90,0.00,,,0.55,WUHU21623XXSP,2013-06-10 09:17:00,
2013-06-10 05:22:00,67.8,64.8,0.00,North,0,0.0,0.0,90,0.00,,,0.55,WUHU21623XXSP,2013-06-10 09:22:00,
2013-06-10 05:27:00,67.8,64.8,0.00,North,0,0.0,0.0,90,0.00,,,0.55,WUHU21623XXSP,2013-06-10 09:27:00,
2013-06-10 05:32:00,67.8,64.8,0.00,North,0,0.0,0.0,90,0.00,,,0.55,WUHU21623XXSP,2013-06-10 09:32:00,
2013-06-10 05:37:00,67.8,64.8,0.00,North,0,0.0,0.0,90,0.00,,,0.55,WUHU21623XXSP,2013-06-10 09:37:00,
2013-06-10 05:42:00,67.8,64.8,0.00,North,0,0.0,0.0,90,0.00,,,0.55,WUHU21623XXSP,2013-06-10 09:42:00,
2013-06-10 05:47:00,67.8,64.8,0.00,North,0,0.0,0.0,90,0.00,,,0.55,WUHU21623XXSP,2013-06-10 09:47:00,
2013-06-10 05:52:00,67.8,64.8,0.00,North,0,0.0,0.0,90,0.00,,,0.55,WUHU21623XXSP,2013-06-10 09:52:00,
2013-06-10 05:57:00,68.0,64.9,0.00,North,0,0.0,0.0,90,0.00,,,0.55,WUHU21623XXSP,2013-06-10 09:57:00,
2013-06-10 06:02:00,68.2,65.1,0.00,North,0,0.0,0.0,90,0.00,,,0.55,WUHU21623XXSP,2013-06-10 10:02:00,
2013-06-10 06:07:00,68.0,64.9,0.00,North,0,0.0,0.0,90,0.00,,,0.55,WUHU21623XXSP,2013-06-10 10:07:00,
2013-06-10 06:12:00,68.2,65.1,0.00,North,0,0.0,0.0,90,0.00,,,0.55,WUHU21623XXSP,2013-06-10 10:12:00,
2013-06-10 06:17:00,68.2,65.1,0.00,North,0,0.0,0.0,90,0.00,,,0.55,WUHU21623XXSP,2013-06-10 10:17:00,
2013-06-10 06:22:00,68.2,65.1,0.00,North,0,0.0,0.0,90,0.00,,,0.55,WUHU21623XXSP,2013-06-10 10:22:00,
2013-06-10 06:27:00,68.2,65.1,0.00,North,0,0.0,0.0,90,0.00,,,0.55,WUHU21623XXSP,2013-06-10 10:27:00,
2013-06-10 06:32:00,68.4,65.1,0.00,North,0,0.0,0.0,90,0.00,,,0.55,WUHU21623XXSP,2013-06-10 10:32:00,
2013-06-10 06:37:00,68.4,65.3,0.00,North,0,0.0,0.0,90,0.00,,,0.55,WUHU21623XXSP,2013-06-10 10:37:00,
2013-06-10 06:42:00,68.4,65.3,0.00,North,0,0.0,0.0,90,0.00,,,0.55,WUHU21623XXSP,2013-06-10 10:42:00,
2013-06-10 06:47:00,68.5,65.5,0.00,North,0,0.0,0.0,90,0.00,,,0.55,WUHU21623XXSP,2013-06-10 10:47:00,
2013-06-10 06:52:00,68.5,65.5,0.00,North,0,0.0,0.0,90,0.00,,,0.55,WUHU21623XXSP,2013-06-10 10:52:00,
2013-06-10 06:57:00,68.5,65.5,0.00,North,0,0.0,0.0,90,0.00,,,0.55,WUHU21623XXSP,2013-06-10 10:57:00,
2013-06-10 07:02:00,68.5,65.5,0.00,North,0,0.0,0.0,90,0.00,,,0.55,WUHU21623XXSP,2013-06-10 11:02:00,
2013-06-10 07:07:00,68.5,65.5,0.00,North,0,0.0,0.0,90,0.00,,,0.55,WUHU21623XXSP,2013-06-10 11:07:00,
2013-06-10 07:12:00,68.7,65.7,0.00,North,0,0.0,0.0,90,0.00,,,0.55,WUHU21623XXSP,2013-06-10 11:12:00,
2013-06-10 07:17:00,68.7,65.7,0.00,North,0,0.0,0.0,90,0.00,,,0.55,WUHU21623XXSP,2013-06-10 11:17:00,
2013-06-10 07:22:00,68.7,65.7,0.00,North,0,0.0,0.0,90,0.00,,,0.55,WUHU21623XXSP,2013-06-10 11:22:00,
2013-06-10 07:27:00,68.7,65.7,0.00,North,0,0.0,0.0,90,0.00,,,0.55,WUHU21623XXSP,2013-06-10 11:27:00,
2013-06-10 07:32:00,68.9,65.8,0.00,North,0,0.0,0.0,90,0.00,,,0.55,WUHU21623XXSP,2013-06-10 11:32:00,
2013-06-10 07:37:00,68.9,65.8,0.00,North,0,0.0,0.0,90,0.00,,,0.55,WUHU21623XXSP,2013-06-10 11:37:00,
2013-06-10 07:42:00,69.1,66.0,0.00,North,0,0.0,0.0,90,0.00,,,0.55,WUHU21623XXSP,2013-06-10 11:42:00,
2013-06-10 07:47:00,69.1,66.0,0.00,North,0,0.0,0.0,90,0.00,,,0.55,WUHU21623XXSP,2013-06-10 11:47:00,
2013-06-10 07:52:00,69.1,66.0,0.00,North,0,0.0,0.0,90,0.00,,,0.55,WUHU21623XXSP,2013-06-10 11:52:00,
2013-06-10 07:57:00,69.1,66.0,0.00,North,0,0.0,0.0,90,0.00,,,0.55,WUHU21623XXSP,2013-06-10 11:57:00,
2013-06-10 08:02:00,69.3,66.2,0.00,North,0,0.0,0.0,90,0.00,,,0.55,WUHU21623XXSP,2013-06-10 12:02:00,
2013-06-10 08:07:00,69.4,66.2,0.00,North,0,0.0,0.0,90,0.00,,,0.55,WUHU21623XXSP,2013-06-10 12:07:00,
2013-06-10 08:12:00,69.4,66.4,0.00,North,0,0.0,0.0,90,0.00,,,0.55,WUHU21623XXSP,2013-06-10 12:12:00,
2013-06-10 08:17:00,69.4,66.4,0.00,North,0,0.0,0.0,90,0.00,,,0.55,WUHU21623XXSP,2013-06-10 12:17:00,
2013-06-10 08:22:00,69.6,66.4,0.00,North,0,0.0,0.0,90,0.00,,,0.55,WUHU21623XXSP,2013-06-10 12:22:00,
2013-06-10 08:27:00,69.6,66.6,0.00,North,0,0.0,0.0,90,0.00,,,0.55,WUHU21623XXSP,2013-06-10 12:27:00,
2013-06-10 08:32:00,69.6,66.6,0.00,North,0,0.0,0.0,90,0.00,,,0.55,WUHU21623XXSP,2013-06-10 12:32:00,
2013-06-10 08:37:00,69.8,66.7,0.00,North,0,0.0,0.0,90,0.00,,,0.55,WUHU21623XXSP,2013-06-10 12:37:00,
2013-06-10 08:42:00,70.0,66.7,0.00,North,0,0.0,0.0,90,0.00,,,0.55,WUHU21623XXSP,2013-06-10 12:42:00,
2013-06-10 08:47:00,70.0,66.9,0.00,North,0,0.0,0.0,90,0.00,,,0.55,WUHU21623XXSP,2013-06-10 12:47:00,
2013-06-10 08:52:00,70.2,67.1,0.00,North,0,0.0,0.0,90,0.00,,,0.55,WUHU21623XXSP,2013-06-10 12:52:00,
2013-06-10 08:57:00,70.3,67.3,0.00,North,0,0.0,0.0,90,0.00,,,0.55,WUHU21623XXSP,2013-06-10 12:57:00,
2013-06-10 09:02:00,70.3,67.3,0.00,North,0,0.0,0.0,90,0.00,,,0.55,WUHU21623XXSP,2013-06-10 13:02:00,
2013-06-10 09:07:00,70.3,67.3,0.00,North,0,0.0,0.0,90,0.00,,,0.55,WUHU21623XXSP,2013-06-10 13:07:00,
2013-06-10 09:12:00,70.5,67.5,0.00,North,0,0.0,0.0,90,0.00,,,0.55,WUHU21623XXSP,2013-06-10 13:12:00,
2013-06-10 09:17:00,70.5,67.5,0.00,North,0,0.0,0.0,90,0.00,,,0.55,WUHU21623XXSP,2013-06-10 13:17:00,
2013-06-10 09:22:00,70.5,67.5,0.00,North,0,0.0,0.0,90,0.00,,,0.55,WUHU21623XXSP,2013-06-10 13:22:00,
2013-06-10 09:27:00,70.5,67.6,0.00,North,0,0.0,0.0,90,0.00,,,0.55,WUHU21623XXSP,2013-06-10 13:27:00,
2013-06-10 09:32:00,70.7,67.6,0.00,North,0,0.0,0.0,90,0.00,,,0.55,WUHU21623XXSP,2013-06-10 13:32:00,
2013-06-10 09:37:00,70.7,67.6,0.00,North,0,0.0,0.0,90,0.00,,,0.55,WUHU21623XXSP,2013-06-10 13:37:00,
2013-06-10 09:43:00,70.7,67.6,0.00,North,0,0.0,0.0,90,0.00,,,0.55,WUHU21623XXSP,2013-06-10 13:43:00,
2013-06-10 09:48:00,70.9,67.8,0.00,North,0,0.0,0.0,90,0.00,,,0.55,WUHU21623XXSP,2013-06-10 13:48:00,
2013-06-10 09:53:00,70.9,67.8,0.00,North,0,0.0,0.0,90,0.00,,,0.55,WUHU21623XXSP,2013-06-10 13:53:00,
2013-06-10 09:58:00,70.9,67.8,0.00,North,0,0.0,0.0,90,0.00,,,0.55,WUHU21623XXSP,2013-06-10 13:58:00,
2013-06-10 10:03:00,71.2,68.2,0.00,North,0,0.0,0.0,90,0.00,,,0.55,WUHU21623XXSP,2013-06-10 14:03:00,
2013-06-10 10:08:00,71.2,68.2,0.00,North,0,0.0,0.0,90,0.00,,,0.55,WUHU21623XXSP,2013-06-10 14:08:00,
2013-06-10 10:13:00,71.4,68.4,0.00,North,0,0.0,0.0,90,0.00,,,0.55,WUHU21623XXSP,2013-06-10 14:13:00,
2013-06-10 10:18:00,71.4,68.4,0.00,North,0,0.0,0.0,90,0.00,,,0.55,WUHU21623XXSP,2013-06-10 14:18:00,
2013-06-10 10:23:00,71.6,68.4,0.00,North,0,0.0,0.0,90,0.00,,,0.55,WUHU21623XXSP,2013-06-10 14:23:00,
2013-06-10 10:28:00,71.8,68.7,0.00,North,0,0.0,0.0,90,0.00,,,0.55,WUHU21623XXSP,2013-06-10 14:28:00,
2013-06-10 10:33:00,72.0,68.7,0.00,North,0,0.0,0.0,90,0.00,,,0.55,WUHU21623XXSP,2013-06-10 14:33:00,
2013-06-10 10:38:00,72.1,69.1,0.00,North,0,0.0,0.0,90,0.00,,,0.55,WUHU21623XXSP,2013-06-10 14:38:00,
2013-06-10 10:43:00,72.3,69.1,0.00,North,0,0.0,0.0,90,0.00,,,0.55,WUHU21623XXSP,2013-06-10 14:43:00,
2013-06-10 10:48:00,72.3,69.3,0.00,North,0,0.0,0.0,90,0.00,,,0.55,WUHU21623XXSP,2013-06-10 14:48:00,
2013-06-10 10:53:00,72.3,69.3,0.00,North,0,0.0,0.0,90,0.00,,,0.55,WUHU21623XXSP,2013-06-10 14:53:00,
2013-06-10 10:58:00,72.5,69.4,0.00,North,0,0.0,0.0,90,0.00,,,0.55,WUHU21623XXSP,2013-06-10 14:58:00,
2013-06-10 11:03:00,72.7,69.6,0.00,North,0,0.0,0.0,90,0.00,,,0.55,WUHU21623XXSP,2013-06-10 15:03:00,
2013-06-10 11:08:00,72.9,69.8,0.00,North,0,0.0,0.0,90,0.00,,,0.55,WUHU21623XXSP,2013-06-10 15:08:00,
2013-06-10 11:13:00,73.0,70.0,0.00,North,0,0.0,0.0,90,0.00,,,0.55,WUHU21623XXSP,2013-06-10 15:13:00,
2013-06-10 11:18:00,73.2,70.2,0.00,North,0,0.0,0.0,90,0.00,,,0.55,WUHU21623XXSP,2013-06-10 15:18:00,
2013-06-10 11:23:00,73.2,70.2,0.00,North,0,0.0,0.0,90,0.00,,,0.55,WUHU21623XXSP,2013-06-10 15:23:00,
2013-06-10 11:28:00,73.2,70.2,0.00,North,0,0.0,0.0,90,0.00,,,0.55,WUHU21623XXSP,2013-06-10 15:28:00,
2013-06-10 11:33:00,73.2,70.2,0.00,North,0,0.0,0.0,90,0.00,,,0.55,WUHU21623XXSP,2013-06-10 15:33:00,
2013-06-10 11:38:00,73.4,70.3,0.00,North,0,0.0,0.0,90,0.00,,,0.55,WUHU21623XXSP,2013-06-10 15:38:00,
2013-06-10 11:43:00,73.6,70.3,0.00,North,0,0.0,0.0,90,0.00,,,0.55,WUHU21623XXSP,2013-06-10 15:43:00,
2013-06-10 11:48:00,73.4,70.3,0.00,North,0,0.0,0.0,90,0.00,,,0.55,WUHU21623XXSP,2013-06-10 15:48:00,
2013-06-10 11:53:00,73.4,70.3,0.00,North,0,0.0,0.0,90,0.02,,,0.55,WUHU21623XXSP,2013-06-10 15:53:00,
2013-06-10 11:58:00,73.2,70.2,0.00,North,0,0.0,0.0,90,0.04,,,0.57,WUHU21623XXSP,2013-06-10 15:58:00,
2013-06-10 12:03:00,73.2,70.2,0.00,North,0,0.0,0.0,90,0.06,,,0.61,WUHU21623XXSP,2013-06-10 16:03:00,
2013-06-10 12:08:00,73.0,70.0,0.00,North,0,0.0,0.0,90,0.06,,,0.61,WUHU21623XXSP,2013-06-10 16:08:00,
2013-06-10 12:13:00,73.0,70.0,0.00,North,0,0.0,0.0,90,0.06,,,0.61,WUHU21623XXSP,2013-06-10 16:13:00,
2013-06-10 12:18:00,72.7,69.8,0.00,North,0,0.0,0.0,90,0.06,,,0.61,WUHU21623XXSP,2013-06-10 16:18:00,
2013-06-10 12:23:00,72.7,69.6,0.00,North,0,0.0,0.0,90,0.06,,,0.61,WUHU21623XXSP,2013-06-10 16:23:00,
2013-06-10 12:28:00,72.7,69.6,0.00,North,0,0.0,0.0,90,0.06,,,0.61,WUHU21623XXSP,2013-06-10 16:28:00,
2013-06-10 12:33:00,72.5,69.4,0.00,North,0,0.0,0.0,90,0.06,,,0.61,WUHU21623XXSP,2013-06-10 16:33:00,
2013-06-10 12:38:00,72.7,69.6,0.00,North,0,0.0,0.0,90,0.08,,,0.63,WUHU21623XXSP,2013-06-10 16:38:00,
2013-06-10 12:43:00,73.0,69.6,0.00,North,0,0.0,0.0,90,0.08,,,0.63,WUHU21623XXSP,2013-06-10 16:43:00,
2013-06-10 12:48:00,73.0,70.0,0.00,North,0,0.0,0.0,90,0.08,,,0.63,WUHU21623XXSP,2013-06-10 16:48:00,
2013-06-10 12:53:00,73.2,70.2,0.00,North,0,0.0,0.0,90,0.06,,,0.63,WUHU21623XXSP,2013-06-10 16:53:00,
2013-06-10 12:58:00,73.6,70.5,0.00,North,0,0.0,0.0,90,0.02,,,0.63,WUHU21623XXSP,2013-06-10 16:58:00,
2013-06-10 13:03:00,73.8,70.7,0.00,North,0,0.0,0.0,90,0.02,,,0.63,WUHU21623XXSP,2013-06-10 17:03:00,
2013-06-10 13:09:00,74.1,70.9,0.00,North,0,0.0,0.0,90,0.02,,,0.63,WUHU21623XXSP,2013-06-10 17:09:00,
2013-06-10 13:14:00,74.1,70.9,0.00,North,0,0.0,0.0,90,0.02,,,0.63,WUHU21623XXSP,2013-06-10 17:14:00,
2013-06-10 13:18:00,74.5,71.4,0.00,North,0,0.0,0.0,90,0.02,,,0.63,WUHU21623XXSP,2013-06-10 17:18:00,
2013-06-10 13:24:00,74.7,71.6,0.00,North,0,0.0,0.0,90,0.02,,,0.63,WUHU21623XXSP,2013-06-10 17:24:00,
2013-06-10 13:33:00,74.8,71.8,0.00,North,0,0.0,0.0,90,0.02,,,0.63,WUHU21623XXSP,2013-06-10 17:33:00,
2013-06-10 13:39:00,74.8,71.8,0.00,North,0,0.0,0.0,90,0.00,,,0.63,WUHU21623XXSP,2013-06-10 17:39:00,
2013-06-10 13:40:00,74.8,71.8,0.00,North,0,0.0,0.0,90,0.00,,,0.63,WUHU21623XXSP,2013-06-10 17:40:00,
2013-06-10 13:46:00,74.7,71.6,0.00,North,0,0.0,0.0,90,0.00,,,0.63,WUHU21623XXSP,2013-06-10 17:46:00,
2013-06-10 13:54:00,74.5,71.4,0.00,North,0,0.0,0.0,90,0.00,,,0.63,WUHU21623XXSP,2013-06-10 17:54:00,
2013-06-10 14:01:00,74.8,71.6,0.00,North,0,0.0,0.0,90,0.00,,,0.63,WUHU21623XXSP,2013-06-10 18:01:00,
2013-06-10 14:15:00,74.8,71.8,0.00,North,0,0.0,0.0,90,0.00,,,0.63,WUHU21623XXSP,2013-06-10 18:15:00,
2013-06-10 14:20:00,75.0,72.0,0.00,North,0,0.0,0.0,90,0.00,,,0.63,WUHU21623XXSP,2013-06-10 18:20:00,
2013-06-10 14:25:00,75.0,72.0,0.00,North,0,0.0,0.0,90,0.00,,,0.63,WUHU21623XXSP,2013-06-10 18:25:00,
2013-06-10 14:30:00,75.4,72.0,0.00,North,0,0.0,0.0,90,0.00,,,0.63,WUHU21623XXSP,2013-06-10 18:30:00,
2013-06-10 14:35:00,75.6,72.5,0.00,North,0,0.0,0.0,90,0.00,,,0.63,WUHU21623XXSP,2013-06-10 18:35:00,
2013-06-10 14:40:00,75.9,72.9,0.00,North,0,0.0,0.0,90,0.00,,,0.63,WUHU21623XXSP,2013-06-10 18:40:00,
2013-06-10 14:45:00,76.1,73.0,0.00,North,0,0.0,0.0,90,0.00,,,0.63,WUHU21623XXSP,2013-06-10 18:45:00,
2013-06-10 14:50:00,76.3,73.2,0.00,North,0,0.0,0.0,90,0.00,,,0.63,WUHU21623XXSP,2013-06-10 18:50:00,
2013-06-10 14:55:00,76.3,73.2,0.00,North,0,0.0,0.0,90,0.00,,,0.63,WUHU21623XXSP,2013-06-10 18:55:00,
2013-06-10 15:00:00,76.3,73.2,0.00,North,0,0.0,0.0,90,0.00,,,0.63,WUHU21623XXSP,2013-06-10 19:00:00,
2013-06-10 15:05:00,76.5,72.9,0.00,North,0,0.0,0.0,89,0.00,,,0.63,WUHU21623XXSP,2013-06-10 19:05:00,
2013-06-10 15:10:00,76.6,73.0,0.00,North,0,0.0,0.0,89,0.00,,,0.63,WUHU21623XXSP,2013-06-10 19:10:00,
2013-06-10 15:15:00,76.6,73.2,0.00,North,0,0.0,0.0,89,0.00,,,0.63,WUHU21623XXSP,2013-06-10 19:15:00,
2013-06-10 15:20:00,76.6,73.2,0.00,North,0,0.0,0.0,89,0.00,,,0.63,WUHU21623XXSP,2013-06-10 19:20:00,
2013-06-10 15:25:00,76.5,72.7,0.00,North,0,0.0,0.0,89,0.00,,,0.63,WUHU21623XXSP,2013-06-10 19:25:00,
2013-06-10 15:30:00,76.3,73.0,0.00,North,0,0.0,0.0,89,0.00,,,0.63,WUHU21623XXSP,2013-06-10 19:30:00,
2013-06-10 15:35:00,76.3,72.9,0.00,North,0,0.0,0.0,89,0.00,,,0.63,WUHU21623XXSP,2013-06-10 19:35:00,
2013-06-10 15:40:00,76.3,72.5,0.00,North,0,0.0,0.0,88,0.00,,,0.63,WUHU21623XXSP,2013-06-10 19:40:00,
2013-06-10 15:45:00,76.3,72.5,0.00,North,0,0.0,0.0,88,0.00,,,0.63,WUHU21623XXSP,2013-06-10 19:45:00,
2013-06-10 15:50:00,76.3,72.5,0.00,North,0,0.0,0.0,88,0.00,,,0.63,WUHU21623XXSP,2013-06-10 19:50:00,
2013-06-10 15:55:00,76.1,72.5,0.00,North,0,0.0,0.0,88,0.00,,,0.63,WUHU21623XXSP,2013-06-10 19:55:00,
2013-06-10 16:00:00,76.1,72.3,0.00,North,0,0.0,0.0,88,0.00,,,0.63,WUHU21623XXSP,2013-06-10 20:00:00,
2013-06-10 16:05:00,76.3,72.3,0.00,North,0,0.0,0.0,88,0.00,,,0.63,WUHU21623XXSP,2013-06-10 20:05:00,
2013-06-10 16:10:00,76.3,72.5,0.00,North,0,0.0,0.0,88,0.00,,,0.63,WUHU21623XXSP,2013-06-10 20:10:00,
2013-06-10 16:15:00,76.3,72.5,0.00,North,0,0.0,0.0,88,0.00,,,0.63,WUHU21623XXSP,2013-06-10 20:15:00,
2013-06-10 16:20:00,76.3,72.5,0.00,North,0,0.0,0.0,88,0.00,,,0.63,WUHU21623XXSP,2013-06-10 20:20:00,
2013-06-10 16:26:00,76.5,72.7,0.00,North,0,0.0,0.0,88,0.00,,,0.63,WUHU21623XXSP,2013-06-10 20:26:00,
2013-06-10 16:31:00,76.5,72.3,0.00,North,0,0.0,0.0,87,0.00,,,0.63,WUHU21623XXSP,2013-06-10 20:31:00,
2013-06-10 16:36:00,76.6,72.5,0.00,North,0,0.0,0.0,87,0.00,,,0.63,WUHU21623XXSP,2013-06-10 20:36:00,
2013-06-10 16:41:00,76.6,72.5,0.00,North,0,0.0,0.0,87,0.00,,,0.63,WUHU21623XXSP,2013-06-10 20:41:00,
2013-06-10 16:46:00,76.8,72.7,0.00,North,0,0.0,0.0,87,0.00,,,0.63,WUHU21623XXSP,2013-06-10 20:46:00,
2013-06-10 16:51:00,76.8,72.7,0.00,North,0,0.0,0.0,87,0.00,,,0.63,WUHU21623XXSP,2013-06-10 20:51:00,
2013-06-10 16:56:00,76.8,72.7,0.00,North,0,0.0,0.0,87,0.00,,,0.63,WUHU21623XXSP,2013-06-10 20:56:00,
2013-06-10 17:01:00,76.8,72.7,0.00,North,0,0.0,0.0,87,0.00,,,0.63,WUHU21623XXSP,2013-06-10 21:01:00,
2013-06-10 17:06:00,76.8,72.3,0.00,North,0,0.0,0.0,86,0.00,,,0.63,WUHU21623XXSP,2013-06-10 21:06:00,
2013-06-10 17:11:00,77.0,72.5,0.00,North,0,0.0,0.0,86,0.00,,,0.63,WUHU21623XXSP,2013-06-10 21:11:00,
2013-06-10 17:16:00,76.8,72.3,0.00,North,0,0.0,0.0,86,0.00,,,0.63,WUHU21623XXSP,2013-06-10 21:16:00,
2013-06-10 17:21:00,76.6,72.3,0.00,North,0,0.0,0.0,86,0.00,,,0.63,WUHU21623XXSP,2013-06-10 21:21:00,
2013-06-10 17:26:00,76.5,72.1,0.00,North,0,0.0,0.0,86,0.00,,,0.63,WUHU21623XXSP,2013-06-10 21:26:00,
2013-06-10 17:31:00,76.3,71.8,0.00,North,0,0.0,0.0,86,0.00,,,0.63,WUHU21623XXSP,2013-06-10 21:31:00,
2013-06-10 17:36:00,76.1,71.6,0.00,North,0,0.0,0.0,86,0.00,,,0.63,WUHU21623XXSP,2013-06-10 21:36:00,
2013-06-10 17:41:00,75.9,71.5,0.00,North,0,0.0,0.0,86,0.00,,,0.63,WUHU21623XXSP,2013-06-10 21:41:00,
2013-06-10 17:46:00,75.7,71.5,0.00,North,0,0.0,0.0,87,0.00,,,0.63,WUHU21623XXSP,2013-06-10 21:46:00,
2013-06-10 17:51:00,75.6,71.6,0.00,North,0,0.0,0.0,87,0.00,,,0.63,WUHU21623XXSP,2013-06-10 21:51:00,
2013-06-10 17:56:00,75.6,71.5,0.00,North,0,0.0,0.0,86,0.00,,,0.63,WUHU21623XXSP,2013-06-10 21:56:00,
2013-06-10 18:01:00,74.3,69.9,0.00,North,0,0.0,0.0,86,0.04,,,0.67,WUHU21623XXSP,2013-06-10 22:01:00,
2013-06-10 18:06:00,74.3,69.9,0.00,North,0,0.0,0.0,86,0.04,,,0.67,WUHU21623XXSP,2013-06-10 22:06:00,
2013-06-10 18:11:00,74.3,69.9,0.00,North,0,0.0,0.0,86,0.04,,,0.67,WUHU21623XXSP,2013-06-10 22:11:00,
2013-06-10 18:16:00,70.9,66.8,0.00,North,0,0.0,0.0,87,0.04,,,0.67,WUHU21623XXSP,2013-06-10 22:16:00,
2013-06-10 18:21:00,70.5,66.6,0.00,North,0,0.0,0.0,87,0.18,,,0.67,WUHU21623XXSP,2013-06-10 22:21:00,
2013-06-10 18:26:00,70.3,66.3,0.00,North,0,0.0,0.0,87,0.18,,,0.81,WUHU21623XXSP,2013-06-10 22:26:00,
2013-06-10 18:31:00,70.0,66.4,0.00,North,0,0.0,0.0,88,0.24,,,0.87,WUHU21623XXSP,2013-06-10 22:31:00,
2013-06-10 18:36:00,70.0,66.2,0.00,North,0,0.0,0.0,88,0.24,,,0.87,WUHU21623XXSP,2013-06-10 22:36:00,
2013-06-10 18:41:00,69.8,66.1,0.00,North,0,0.0,0.0,88,0.24,,,0.87,WUHU21623XXSP,2013-06-10 22:41:00,
2013-06-10 18:46:00,69.6,65.9,0.00,North,0,0.0,0.0,88,0.24,,,0.87,WUHU21623XXSP,2013-06-10 22:46:00,
2013-06-10 18:51:00,69.6,65.9,0.00,North,0,0.0,0.0,88,0.24,,,0.87,WUHU21623XXSP,2013-06-10 22:51:00,
2013-06-10 18:56:00,69.6,65.9,0.00,North,0,0.0,0.0,88,0.24,,,0.87,WUHU21623XXSP,2013-06-10 22:56:00,
2013-06-10 19:01:00,69.4,65.9,0.00,North,0,0.0,0.0,88,0.20,,,0.87,WUHU21623XXSP,2013-06-10 23:01:00,
2013-06-10 19:06:00,69.4,65.7,0.00,North,0,0.0,0.0,88,0.20,,,0.87,WUHU21623XXSP,2013-06-10 23:06:00,
2013-06-10 19:11:00,69.4,65.7,0.00,North,0,0.0,0.0,88,0.20,,,0.87,WUHU21623XXSP,2013-06-10 23:11:00,
2013-06-10 19:16:00,69.4,65.7,0.00,North,0,0.0,0.0,88,0.06,,,0.87,WUHU21623XXSP,2013-06-10 23:16:00,
2013-06-10 19:21:00,69.4,65.7,0.00,North,0,0.0,0.0,88,0.06,,,0.87,WUHU21623XXSP,2013-06-10 23:21:00,
2013-06-10 19:26:00,69.4,65.7,0.00,North,0,0.0,0.0,88,0.00,,,0.87,WUHU21623XXSP,2013-06-10 23:26:00,
2013-06-10 19:31:00,69.4,65.7,0.00,North,0,0.0,0.0,88,0.00,,,0.87,WUHU21623XXSP,2013-06-10 23:31:00,
2013-06-10 19:36:00,69.4,65.7,0.00,North,0,0.0,0.0,89,0.00,,,0.87,WUHU21623XXSP,2013-06-10 23:36:00,
2013-06-10 19:41:00,69.4,66.0,0.00,North,0,0.0,0.0,89,0.00,,,0.87,WUHU21623XXSP,2013-06-10 23:41:00,
2013-06-10 19:46:00,69.4,66.0,0.00,North,0,0.0,0.0,89,0.00,,,0.87,WUHU21623XXSP,2013-06-10 23:46:00,
2013-06-10 19:51:00,69.3,65.9,0.00,North,0,0.0,0.0,89,0.00,,,0.87,WUHU21623XXSP,2013-06-10 23:51:00,
2013-06-10 19:56:00,69.3,65.9,0.00,North,0,0.0,0.0,89,0.00,,,0.87,WUHU21623XXSP,2013-06-10 23:56:00,
2013-06-10 20:01:00,69.3,65.9,0.00,North,0,0.0,0.0,89,0.00,,,0.87,WUHU21623XXSP,2013-06-11 00:01:00,
2013-06-10 20:06:00,69.3,65.9,0.00,North,0,0.0,0.0,89,0.00,,,0.87,WUHU21623XXSP,2013-06-11 00:06:00,
2013-06-10 20:35:00,69.4,66.0,0.00,North,0,0.0,0.0,89,0.00,,,0.87,WUHU21623XXSP,2013-06-11 00:35:00,
2013-06-10 20:40:00,69.4,66.0,0.00,North,0,0.0,0.0,89,0.00,,,0.87,WUHU21623XXSP,2013-06-11 00:40:00,
2013-06-10 20:45:00,69.4,66.0,0.00,North,0,0.0,0.0,89,0.00,,,0.87,WUHU21623XXSP,2013-06-11 00:45:00,
2013-06-10 20:50:00,69.4,66.0,0.00,North,0,0.0,0.0,89,0.00,,,0.87,WUHU21623XXSP,2013-06-11 00:50:00,
2013-06-10 20:56:00,69.4,66.0,0.00,North,0,0.0,0.0,89,0.00,,,0.87,WUHU21623XXSP,2013-06-11 00:56:00,
2013-06-10 20:58:00,69.4,66.0,0.00,North,0,0.0,0.0,89,0.00,,,0.87,WUHU21623XXSP,2013-06-11 00:58:00,
2013-06-10 21:26:00,68.9,65.5,0.00,North,0,0.0,0.0,89,0.00,,,0.87,WUHU21623XXSP,2013-06-11 01:26:00,
2013-06-10 21:33:00,68.7,65.3,0.00,North,0,0.0,0.0,89,0.00,,,0.87,WUHU21623XXSP,2013-06-11 01:33:00,
2013-06-10 21:39:00,68.7,65.3,0.00,North,0,0.0,0.0,89,0.00,,,0.87,WUHU21623XXSP,2013-06-11 01:39:00,
2013-06-10 21:45:00,68.7,65.3,0.00,North,0,0.0,0.0,89,0.00,,,0.87,WUHU21623XXSP,2013-06-11 01:45:00,
2013-06-10 21:52:00,68.7,65.3,0.00,North,0,0.0,0.0,89,0.00,,,0.87,WUHU21623XXSP,2013-06-11 01:52:00,
2013-06-10 21:55:00,68.7,65.3,0.00,North,0,0.0,0.0,89,0.00,,,0.87,WUHU21623XXSP,2013-06-11 01:55:00,
2013-06-10 22:09:00,68.2,64.8,0.00,North,0,0.0,0.0,89,0.00,,,0.87,WUHU21623XXSP,2013-06-11 02:09:00,
2013-06-10 22:17:00,68.0,64.8,0.00,North,0,0.0,0.0,89,0.00,,,0.87,WUHU21623XXSP,2013-06-11 02:17:00,
2013-06-10 22:22:00,68.0,64.6,0.00,North,0,0.0,0.0,89,0.00,,,0.87,WUHU21623XXSP,2013-06-11 02:22:00,
2013-06-10 22:45:00,67.8,64.4,0.00,North,0,0.0,0.0,89,0.00,,,0.87,WUHU21623XXSP,2013-06-11 02:45:00,
2013-06-10 22:52:00,67.6,64.3,0.00,North,0,0.0,0.0,89,0.00,,,0.87,WUHU21623XXSP,2013-06-11 02:52:00,
2013-06-10 22:58:00,67.6,64.3,0.00,North,0,0.0,0.0,89,0.00,,,0.87,WUHU21623XXSP,2013-06-11 02:58:00,
2013-06-10 23:07:00,67.6,64.3,0.00,North,0,0.0,0.0,89,0.00,,,0.87,WUHU21623XXSP,2013-06-11 03:07:00,
2013-06-10 23:13:00,67.3,63.9,0.00,North,0,0.0,0.0,89,0.00,,,0.87,WUHU21623XXSP,2013-06-11 03:13:00,
2013-06-10 23:20:00,67.3,63.9,0.00,North,0,0.0,0.0,89,0.00,,,0.87,WUHU21623XXSP,2013-06-11 03:20:00,
2013-06-10 23:26:00,67.3,63.9,0.00,North,0,0.0,0.0,89,0.00,,,0.87,WUHU21623XXSP,2013-06-11 03:26:00,
2013-06-10 23:37:00,67.1,63.9,0.00,North,0,0.0,0.0,89,0.00,,,0.87,WUHU21623XXSP,2013-06-11 03:37:00,
2013-06-10 23:43:00,66.9,63.7,0.00,North,0,0.0,0.0,89,0.00,,,0.87,WUHU21623XXSP,2013-06-11 03:43:00,
2013-06-10 23:50:00,66.9,63.5,0.00,North,0,0.0,0.0,89,0.00,,,0.87,WUHU21623XXSP,2013-06-11 03:50:00,
2013-06-10 23:56:00,66.9,63.5,0.00,North,0,0.0,0.0,89,0.00,,,0.87,WUHU21623XXSP,2013-06-11 03:56:00,